sensor_id;sensor_type;location;lat;lon;timestamp;pressure;altitude;pressure_sealevel;temperature;humidity
33151;BME280;19508;42.578;23.416;2024-01-15T00:01:45;93107.13;;;-3.22;82.11
33151;BME280;19508;42.578;23.416;2024-01-15T00:04:10;93122.00;;;-3.14;82.06
33151;BME280;19508;42.578;23.416;2024-01-15T00:06:36;93118.44;;;-3.06;82.00
33151;BME280;19508;42.578;23.416;2024-01-15T00:09:02;93111.56;;;-3.01;81.69
33151;BME280;19508;42.578;23.416;2024-01-15T00:11:27;93107.50;;;-3.03;81.53
33151;BME280;19508;42.578;23.416;2024-01-15T00:13:53;93099.03;;;-2.99;81.45
33151;BME280;19508;42.578;23.416;2024-01-15T00:16:18;93091.56;;;-3.17;81.65
33151;BME280;19508;42.578;23.416;2024-01-15T00:18:44;93091.44;;;-3.30;81.79
33151;BME280;19508;42.578;23.416;2024-01-15T00:21:10;93100.84;;;-3.21;82.76
33151;BME280;19508;42.578;23.416;2024-01-15T00:23:35;93106.13;;;-3.21;82.59
33151;BME280;19508;42.578;23.416;2024-01-15T00:26:01;93101.88;;;-3.22;82.06
33151;BME280;19508;42.578;23.416;2024-01-15T00:28:26;93104.53;;;-3.36;82.17
33151;BME280;19508;42.578;23.416;2024-01-15T00:30:52;93110.56;;;-3.21;81.62
33151;BME280;19508;42.578;23.416;2024-01-15T00:33:17;93124.09;;;-3.46;82.49
33151;BME280;19508;42.578;23.416;2024-01-15T00:35:42;93117.63;;;-3.43;81.68
33151;BME280;19508;42.578;23.416;2024-01-15T00:38:08;93114.75;;;-3.48;82.54
33151;BME280;19508;42.578;23.416;2024-01-15T00:40:33;93106.59;;;-3.53;83.09
33151;BME280;19508;42.578;23.416;2024-01-15T00:42:59;93111.53;;;-3.44;82.70
33151;BME280;19508;42.578;23.416;2024-01-15T00:45:24;93102.50;;;-3.56;82.84
33151;BME280;19508;42.578;23.416;2024-01-15T00:47:50;93101.09;;;-3.58;82.81
33151;BME280;19508;42.578;23.416;2024-01-15T00:50:15;93105.56;;;-3.74;83.36
33151;BME280;19508;42.578;23.416;2024-01-15T00:52:41;93092.59;;;-3.75;84.07
33151;BME280;19508;42.578;23.416;2024-01-15T00:55:06;93093.53;;;-3.61;84.33
33151;BME280;19508;42.578;23.416;2024-01-15T00:57:32;93103.41;;;-3.49;83.58
33151;BME280;19508;42.578;23.416;2024-01-15T00:59:58;93095.41;;;-3.41;83.16
33151;BME280;19508;42.578;23.416;2024-01-15T01:02:23;93090.44;;;-3.50;83.26
33151;BME280;19508;42.578;23.416;2024-01-15T01:04:49;93095.31;;;-3.47;83.13
33151;BME280;19508;42.578;23.416;2024-01-15T01:07:14;93094.19;;;-3.38;82.95
33151;BME280;19508;42.578;23.416;2024-01-15T01:09:39;93092.19;;;-3.36;82.59
33151;BME280;19508;42.578;23.416;2024-01-15T01:12:05;93097.72;;;-3.31;82.14
33151;BME280;19508;42.578;23.416;2024-01-15T01:14:31;93100.19;;;-3.44;82.06
33151;BME280;19508;42.578;23.416;2024-01-15T01:16:57;93104.22;;;-3.48;83.10
33151;BME280;19508;42.578;23.416;2024-01-15T01:19:22;93097.16;;;-3.62;83.67
33151;BME280;19508;42.578;23.416;2024-01-15T01:21:48;93095.72;;;-3.50;83.43
33151;BME280;19508;42.578;23.416;2024-01-15T01:24:14;93088.31;;;-3.40;83.27
33151;BME280;19508;42.578;23.416;2024-01-15T01:26:39;93075.81;;;-3.53;83.48
33151;BME280;19508;42.578;23.416;2024-01-15T01:29:04;93083.16;;;-3.48;83.66
33151;BME280;19508;42.578;23.416;2024-01-15T01:31:30;93090.66;;;-3.66;83.78
33151;BME280;19508;42.578;23.416;2024-01-15T01:33:55;93070.25;;;-3.79;84.05
33151;BME280;19508;42.578;23.416;2024-01-15T01:36:21;93082.88;;;-3.75;84.92
33151;BME280;19508;42.578;23.416;2024-01-15T01:38:46;93083.00;;;-3.61;85.17
33151;BME280;19508;42.578;23.416;2024-01-15T01:41:11;93085.22;;;-3.44;84.43
33151;BME280;19508;42.578;23.416;2024-01-15T01:43:37;93052.44;;;-3.62;83.94
33151;BME280;19508;42.578;23.416;2024-01-15T01:46:03;93063.81;;;-3.77;84.82
33151;BME280;19508;42.578;23.416;2024-01-15T01:48:29;93076.63;;;-3.52;85.46
33151;BME280;19508;42.578;23.416;2024-01-15T01:50:58;93060.59;;;-3.36;84.03
33151;BME280;19508;42.578;23.416;2024-01-15T01:53:26;93089.44;;;-3.49;84.20
33151;BME280;19508;42.578;23.416;2024-01-15T01:55:52;93073.00;;;-3.51;83.64
33151;BME280;19508;42.578;23.416;2024-01-15T01:58:19;93074.66;;;-3.50;84.38
33151;BME280;19508;42.578;23.416;2024-01-15T02:00:48;93061.19;;;-3.41;83.77
33151;BME280;19508;42.578;23.416;2024-01-15T02:03:14;93076.78;;;-3.39;83.30
33151;BME280;19508;42.578;23.416;2024-01-15T02:05:42;93066.75;;;-3.50;83.34
33151;BME280;19508;42.578;23.416;2024-01-15T02:08:08;93063.28;;;-3.51;84.13
33151;BME280;19508;42.578;23.416;2024-01-15T02:10:33;93070.38;;;-3.51;83.48
33151;BME280;19508;42.578;23.416;2024-01-15T02:12:59;93055.97;;;-3.55;83.55
33151;BME280;19508;42.578;23.416;2024-01-15T02:15:24;93051.00;;;-3.65;83.78
33151;BME280;19508;42.578;23.416;2024-01-15T02:17:57;93035.53;;;-3.75;84.87
33151;BME280;19508;42.578;23.416;2024-01-15T02:20:23;93043.19;;;-3.58;84.45
33151;BME280;19508;42.578;23.416;2024-01-15T02:22:48;93034.91;;;-3.55;83.61
33151;BME280;19508;42.578;23.416;2024-01-15T02:25:13;93018.03;;;-3.82;83.76
33151;BME280;19508;42.578;23.416;2024-01-15T02:27:39;93055.56;;;-3.74;84.26
33151;BME280;19508;42.578;23.416;2024-01-15T02:30:05;93041.53;;;-3.81;84.82
33151;BME280;19508;42.578;23.416;2024-01-15T02:32:31;93048.56;;;-3.66;85.45
33151;BME280;19508;42.578;23.416;2024-01-15T02:34:57;93052.41;;;-3.48;85.04
33151;BME280;19508;42.578;23.416;2024-01-15T02:37:22;93030.78;;;-3.64;84.47
33151;BME280;19508;42.578;23.416;2024-01-15T02:39:47;92999.06;;;-3.78;83.95
33151;BME280;19508;42.578;23.416;2024-01-15T02:42:13;92984.53;;;-3.74;84.34
33151;BME280;19508;42.578;23.416;2024-01-15T02:44:38;92995.94;;;-3.66;84.66
33151;BME280;19508;42.578;23.416;2024-01-15T02:47:04;92977.41;;;-3.58;84.83
33151;BME280;19508;42.578;23.416;2024-01-15T02:49:30;92978.16;;;-3.64;84.82
33151;BME280;19508;42.578;23.416;2024-01-15T02:51:57;92990.44;;;-3.50;85.73
33151;BME280;19508;42.578;23.416;2024-01-15T02:54:23;92976.28;;;-3.49;86.38
33151;BME280;19508;42.578;23.416;2024-01-15T02:56:48;92958.00;;;-3.51;85.85
33151;BME280;19508;42.578;23.416;2024-01-15T02:59:13;92987.91;;;-3.09;85.05
33151;BME280;19508;42.578;23.416;2024-01-15T03:01:39;92966.69;;;-3.07;84.52
33151;BME280;19508;42.578;23.416;2024-01-15T03:04:04;92955.59;;;-2.96;83.99
33151;BME280;19508;42.578;23.416;2024-01-15T03:06:31;92966.22;;;-2.83;83.59
33151;BME280;19508;42.578;23.416;2024-01-15T03:08:57;92967.84;;;-2.82;83.24
33151;BME280;19508;42.578;23.416;2024-01-15T03:11:24;92978.69;;;-2.98;82.96
33151;BME280;19508;42.578;23.416;2024-01-15T03:13:49;92974.81;;;-3.02;83.12
33151;BME280;19508;42.578;23.416;2024-01-15T03:16:15;92981.50;;;-3.00;82.65
33151;BME280;19508;42.578;23.416;2024-01-15T03:18:40;92968.34;;;-3.28;83.07
33151;BME280;19508;42.578;23.416;2024-01-15T03:21:06;92973.75;;;-3.08;83.74
33151;BME280;19508;42.578;23.416;2024-01-15T03:23:31;92970.53;;;-3.03;83.18
33151;BME280;19508;42.578;23.416;2024-01-15T03:25:56;92974.81;;;-3.02;83.65
33151;BME280;19508;42.578;23.416;2024-01-15T03:28:22;92971.88;;;-2.86;83.29
33151;BME280;19508;42.578;23.416;2024-01-15T03:30:47;92965.75;;;-2.93;83.41
33151;BME280;19508;42.578;23.416;2024-01-15T03:33:13;92950.81;;;-2.86;83.45
33151;BME280;19508;42.578;23.416;2024-01-15T03:35:38;92969.94;;;-2.71;83.33
33151;BME280;19508;42.578;23.416;2024-01-15T03:38:04;92948.38;;;-2.88;82.74
33151;BME280;19508;42.578;23.416;2024-01-15T03:40:30;92964.06;;;-3.01;83.07
33151;BME280;19508;42.578;23.416;2024-01-15T03:42:55;92939.50;;;-2.80;82.86
33151;BME280;19508;42.578;23.416;2024-01-15T03:45:20;92934.94;;;-2.93;83.08
33151;BME280;19508;42.578;23.416;2024-01-15T03:47:46;92941.97;;;-2.72;83.24
33151;BME280;19508;42.578;23.416;2024-01-15T03:50:11;92939.56;;;-2.67;83.29
33151;BME280;19508;42.578;23.416;2024-01-15T03:52:37;92950.38;;;-2.48;82.56
33151;BME280;19508;42.578;23.416;2024-01-15T03:55:04;92961.56;;;-2.46;82.44
33151;BME280;19508;42.578;23.416;2024-01-15T03:57:29;92931.81;;;-2.75;82.77
33151;BME280;19508;42.578;23.416;2024-01-15T03:59:55;92953.38;;;-2.65;82.91
33151;BME280;19508;42.578;23.416;2024-01-15T04:02:21;92950.78;;;-2.51;82.34
33151;BME280;19508;42.578;23.416;2024-01-15T04:04:46;92952.63;;;-2.52;82.20
33151;BME280;19508;42.578;23.416;2024-01-15T04:07:12;92946.97;;;-2.42;82.02
33151;BME280;19508;42.578;23.416;2024-01-15T04:09:37;92949.00;;;-2.44;81.52
33151;BME280;19508;42.578;23.416;2024-01-15T04:12:03;92953.41;;;-2.51;82.04
33151;BME280;19508;42.578;23.416;2024-01-15T04:14:28;92929.13;;;-2.47;82.02
33151;BME280;19508;42.578;23.416;2024-01-15T04:16:54;92929.88;;;-2.60;81.88
33151;BME280;19508;42.578;23.416;2024-01-15T04:19:19;92930.59;;;-2.79;82.67
33151;BME280;19508;42.578;23.416;2024-01-15T04:21:45;92903.88;;;-2.69;82.29
33151;BME280;19508;42.578;23.416;2024-01-15T04:24:10;92935.06;;;-3.07;83.76
33151;BME280;19508;42.578;23.416;2024-01-15T04:26:35;92927.94;;;-2.79;83.38
33151;BME280;19508;42.578;23.416;2024-01-15T04:29:01;92947.00;;;-2.77;83.99
33151;BME280;19508;42.578;23.416;2024-01-15T04:31:26;92938.53;;;-2.66;83.81
33151;BME280;19508;42.578;23.416;2024-01-15T04:33:52;92920.19;;;-2.87;84.06
33151;BME280;19508;42.578;23.416;2024-01-15T04:36:18;92941.66;;;-2.56;83.48
33151;BME280;19508;42.578;23.416;2024-01-15T04:38:43;92936.84;;;-2.45;83.16
33151;BME280;19508;42.578;23.416;2024-01-15T04:41:12;92934.34;;;-2.53;83.05
33151;BME280;19508;42.578;23.416;2024-01-15T04:43:38;92911.63;;;-2.61;82.65
33151;BME280;19508;42.578;23.416;2024-01-15T04:46:05;92948.41;;;-2.81;82.97
33151;BME280;19508;42.578;23.416;2024-01-15T04:48:31;92936.22;;;-2.82;81.99
33151;BME280;19508;42.578;23.416;2024-01-15T04:50:57;92941.44;;;-2.95;82.70
33151;BME280;19508;42.578;23.416;2024-01-15T04:53:22;92950.69;;;-3.06;83.32
33151;BME280;19508;42.578;23.416;2024-01-15T04:55:47;92928.22;;;-3.02;83.26
33151;BME280;19508;42.578;23.416;2024-01-15T04:58:13;92938.59;;;-2.94;83.11
33151;BME280;19508;42.578;23.416;2024-01-15T05:00:38;92939.22;;;-2.92;83.16
33151;BME280;19508;42.578;23.416;2024-01-15T05:03:04;92939.34;;;-3.06;83.39
33151;BME280;19508;42.578;23.416;2024-01-15T05:05:29;92949.63;;;-3.12;83.65
33151;BME280;19508;42.578;23.416;2024-01-15T05:07:55;92944.94;;;-3.16;83.22
33151;BME280;19508;42.578;23.416;2024-01-15T05:10:20;92943.00;;;-3.29;84.03
33151;BME280;19508;42.578;23.416;2024-01-15T05:12:46;92926.13;;;-3.41;85.03
33151;BME280;19508;42.578;23.416;2024-01-15T05:15:11;92900.13;;;-3.23;85.14
33151;BME280;19508;42.578;23.416;2024-01-15T05:17:37;92907.28;;;-3.10;84.85
33151;BME280;19508;42.578;23.416;2024-01-15T05:20:02;92889.47;;;-3.08;84.89
33151;BME280;19508;42.578;23.416;2024-01-15T05:22:28;92885.59;;;-2.77;85.04
33151;BME280;19508;42.578;23.416;2024-01-15T05:24:53;92894.59;;;-2.59;83.93
33151;BME280;19508;42.578;23.416;2024-01-15T05:27:19;92879.59;;;-2.65;84.00
33151;BME280;19508;42.578;23.416;2024-01-15T05:29:44;92883.25;;;-2.52;83.36
33151;BME280;19508;42.578;23.416;2024-01-15T05:32:10;92877.69;;;-2.30;82.83
33151;BME280;19508;42.578;23.416;2024-01-15T05:34:35;92875.19;;;-2.44;82.93
33151;BME280;19508;42.578;23.416;2024-01-15T05:37:00;92880.31;;;-2.30;82.60
33151;BME280;19508;42.578;23.416;2024-01-15T05:39:26;92872.03;;;-2.20;82.56
33151;BME280;19508;42.578;23.416;2024-01-15T05:41:51;92854.56;;;-2.14;82.06
33151;BME280;19508;42.578;23.416;2024-01-15T05:44:16;92874.66;;;-2.07;81.79
33151;BME280;19508;42.578;23.416;2024-01-15T05:46:42;92861.50;;;-1.93;81.24
33151;BME280;19508;42.578;23.416;2024-01-15T05:49:08;92864.75;;;-1.91;80.88
33151;BME280;19508;42.578;23.416;2024-01-15T05:51:33;92857.47;;;-1.83;80.26
33151;BME280;19508;42.578;23.416;2024-01-15T05:53:59;92855.03;;;-1.78;80.29
33151;BME280;19508;42.578;23.416;2024-01-15T05:56:24;92859.50;;;-1.72;79.89
33151;BME280;19508;42.578;23.416;2024-01-15T05:58:50;92880.34;;;-2.10;80.73
33151;BME280;19508;42.578;23.416;2024-01-15T06:01:15;92851.75;;;-2.06;80.25
33151;BME280;19508;42.578;23.416;2024-01-15T06:03:41;92894.31;;;-2.16;80.95
33151;BME280;19508;42.578;23.416;2024-01-15T06:06:08;92887.66;;;-1.99;80.59
33151;BME280;19508;42.578;23.416;2024-01-15T06:08:37;92889.09;;;-2.03;80.15
33151;BME280;19508;42.578;23.416;2024-01-15T06:11:03;92889.28;;;-1.98;79.88
33151;BME280;19508;42.578;23.416;2024-01-15T06:13:28;92896.38;;;-2.11;80.36
33151;BME280;19508;42.578;23.416;2024-01-15T06:15:54;92893.16;;;-1.93;79.98
33151;BME280;19508;42.578;23.416;2024-01-15T06:18:19;92884.63;;;-2.02;80.10
33151;BME280;19508;42.578;23.416;2024-01-15T06:20:45;92871.44;;;-2.09;80.26
33151;BME280;19508;42.578;23.416;2024-01-15T06:23:10;92902.88;;;-2.07;80.80
33151;BME280;19508;42.578;23.416;2024-01-15T06:25:35;92891.59;;;-1.68;80.05
33151;BME280;19508;42.578;23.416;2024-01-15T06:28:01;92892.22;;;-1.53;79.85
33151;BME280;19508;42.578;23.416;2024-01-15T06:30:26;92899.31;;;-1.27;78.53
33151;BME280;19508;42.578;23.416;2024-01-15T06:32:51;92886.31;;;-1.35;77.69
33151;BME280;19508;42.578;23.416;2024-01-15T06:35:17;92882.03;;;-1.16;77.72
33151;BME280;19508;42.578;23.416;2024-01-15T06:37:42;92873.28;;;-1.30;77.82
33151;BME280;19508;42.578;23.416;2024-01-15T06:40:08;92880.41;;;-1.17;77.78
33151;BME280;19508;42.578;23.416;2024-01-15T06:42:34;92874.69;;;-1.01;77.44
33151;BME280;19508;42.578;23.416;2024-01-15T06:44:59;92857.31;;;-0.70;76.51
33151;BME280;19508;42.578;23.416;2024-01-15T06:47:25;92874.41;;;-0.66;75.65
33151;BME280;19508;42.578;23.416;2024-01-15T06:49:50;92879.00;;;-0.42;75.04
33151;BME280;19508;42.578;23.416;2024-01-15T06:52:17;92857.94;;;-0.23;74.23
33151;BME280;19508;42.578;23.416;2024-01-15T06:54:42;92871.28;;;-0.05;74.05
33151;BME280;19508;42.578;23.416;2024-01-15T06:57:07;92895.69;;;-0.03;73.67
33151;BME280;19508;42.578;23.416;2024-01-15T06:59:34;92878.81;;;0.30;72.68
33151;BME280;19508;42.578;23.416;2024-01-15T07:02:00;92887.81;;;0.22;72.19
33151;BME280;19508;42.578;23.416;2024-01-15T07:04:26;92869.50;;;0.52;72.15
33151;BME280;19508;42.578;23.416;2024-01-15T07:06:51;92878.09;;;0.72;72.58
33151;BME280;19508;42.578;23.416;2024-01-15T07:09:17;92864.34;;;0.82;71.24
33151;BME280;19508;42.578;23.416;2024-01-15T07:11:45;92882.44;;;1.10;70.39
33151;BME280;19508;42.578;23.416;2024-01-15T07:14:12;92896.56;;;0.54;70.53
33151;BME280;19508;42.578;23.416;2024-01-15T07:16:37;92878.34;;;0.39;71.28
33151;BME280;19508;42.578;23.416;2024-01-15T07:19:02;92901.63;;;0.31;72.69
33151;BME280;19508;42.578;23.416;2024-01-15T07:21:28;92870.44;;;0.33;72.20
33151;BME280;19508;42.578;23.416;2024-01-15T07:23:53;92885.53;;;0.57;71.09
33151;BME280;19508;42.578;23.416;2024-01-15T07:26:18;92884.47;;;0.33;72.42
33151;BME280;19508;42.578;23.416;2024-01-15T07:28:44;92889.91;;;0.45;72.25
33151;BME280;19508;42.578;23.416;2024-01-15T07:31:09;92892.69;;;0.56;72.06
33151;BME280;19508;42.578;23.416;2024-01-15T07:33:35;92898.69;;;0.70;71.26
33151;BME280;19508;42.578;23.416;2024-01-15T07:36:00;92883.75;;;0.76;71.16
33151;BME280;19508;42.578;23.416;2024-01-15T07:38:27;92880.50;;;0.49;71.66
33151;BME280;19508;42.578;23.416;2024-01-15T07:40:53;92898.84;;;0.75;71.46
33151;BME280;19508;42.578;23.416;2024-01-15T07:43:19;92913.75;;;0.45;72.68
33151;BME280;19508;42.578;23.416;2024-01-15T07:45:44;92885.78;;;0.80;71.39
33151;BME280;19508;42.578;23.416;2024-01-15T07:48:10;92921.03;;;1.06;69.77
33151;BME280;19508;42.578;23.416;2024-01-15T07:50:36;92886.84;;;0.98;69.44
33151;BME280;19508;42.578;23.416;2024-01-15T07:53:01;92896.66;;;1.16;70.02
33151;BME280;19508;42.578;23.416;2024-01-15T07:55:27;92900.06;;;1.23;69.41
33151;BME280;19508;42.578;23.416;2024-01-15T07:57:52;92903.72;;;1.47;68.64
33151;BME280;19508;42.578;23.416;2024-01-15T08:00:18;92900.03;;;1.66;66.78
33151;BME280;19508;42.578;23.416;2024-01-15T08:02:44;92911.38;;;1.91;66.67
33151;BME280;19508;42.578;23.416;2024-01-15T08:05:09;92894.94;;;1.83;66.83
33151;BME280;19508;42.578;23.416;2024-01-15T08:07:35;92897.75;;;2.18;66.28
33151;BME280;19508;42.578;23.416;2024-01-15T08:10:00;92877.56;;;2.29;65.49
33151;BME280;19508;42.578;23.416;2024-01-15T08:12:26;92887.47;;;2.51;65.18
33151;BME280;19508;42.578;23.416;2024-01-15T08:14:51;92879.91;;;2.67;63.50
33151;BME280;19508;42.578;23.416;2024-01-15T08:17:16;92884.31;;;2.96;63.22
33151;BME280;19508;42.578;23.416;2024-01-15T08:19:42;92875.19;;;3.04;62.17
33151;BME280;19508;42.578;23.416;2024-01-15T08:22:08;92869.19;;;2.85;61.43
33151;BME280;19508;42.578;23.416;2024-01-15T08:24:33;92861.78;;;3.10;61.83
33151;BME280;19508;42.578;23.416;2024-01-15T08:26:59;92874.06;;;3.35;61.16
33151;BME280;19508;42.578;23.416;2024-01-15T08:29:24;92855.53;;;2.93;62.67
33151;BME280;19508;42.578;23.416;2024-01-15T08:31:50;92843.63;;;2.84;64.11
33151;BME280;19508;42.578;23.416;2024-01-15T08:34:15;92867.78;;;3.06;63.53
33151;BME280;19508;42.578;23.416;2024-01-15T08:36:41;92851.38;;;3.09;61.88
33151;BME280;19508;42.578;23.416;2024-01-15T08:39:07;92851.28;;;2.92;63.21
33151;BME280;19508;42.578;23.416;2024-01-15T08:41:34;92840.97;;;2.96;62.68
33151;BME280;19508;42.578;23.416;2024-01-15T08:44:00;92845.72;;;3.05;62.64
33151;BME280;19508;42.578;23.416;2024-01-15T08:46:25;92827.56;;;3.14;60.80
33151;BME280;19508;42.578;23.416;2024-01-15T08:48:50;92834.38;;;3.22;60.99
33151;BME280;19508;42.578;23.416;2024-01-15T08:51:16;92837.28;;;3.20;61.22
33151;BME280;19508;42.578;23.416;2024-01-15T08:53:43;92833.34;;;2.99;61.59
33151;BME280;19508;42.578;23.416;2024-01-15T08:56:09;92831.66;;;3.57;60.05
33151;BME280;19508;42.578;23.416;2024-01-15T08:58:34;92820.91;;;4.04;57.02
33151;BME280;19508;42.578;23.416;2024-01-15T09:01:00;92817.13;;;4.78;55.75
33151;BME280;19508;42.578;23.416;2024-01-15T09:03:25;92823.06;;;5.97;51.69
33151;BME280;19508;42.578;23.416;2024-01-15T09:05:51;92797.91;;;6.41;49.03
33151;BME280;19508;42.578;23.416;2024-01-15T09:08:16;92807.69;;;6.58;49.22
33151;BME280;19508;42.578;23.416;2024-01-15T09:10:42;92798.50;;;7.13;47.65
33151;BME280;19508;42.578;23.416;2024-01-15T09:13:07;92787.44;;;7.41;47.35
33151;BME280;19508;42.578;23.416;2024-01-15T09:15:33;92776.41;;;7.27;46.38
33151;BME280;19508;42.578;23.416;2024-01-15T09:17:59;92766.56;;;6.64;48.64
33151;BME280;19508;42.578;23.416;2024-01-15T09:20:24;92760.13;;;6.65;48.77
33151;BME280;19508;42.578;23.416;2024-01-15T09:22:53;92757.22;;;6.34;50.16
33151;BME280;19508;42.578;23.416;2024-01-15T09:25:19;92731.97;;;7.31;46.51
33151;BME280;19508;42.578;23.416;2024-01-15T09:27:44;92718.09;;;8.17;46.19
33151;BME280;19508;42.578;23.416;2024-01-15T09:30:10;92708.69;;;8.05;44.51
33151;BME280;19508;42.578;23.416;2024-01-15T09:32:36;92716.47;;;6.91;46.63
33151;BME280;19508;42.578;23.416;2024-01-15T09:35:02;92705.25;;;6.94;44.49
33151;BME280;19508;42.578;23.416;2024-01-15T09:37:27;92721.81;;;6.91;44.89
33151;BME280;19508;42.578;23.416;2024-01-15T09:39:53;92720.09;;;7.12;45.89
33151;BME280;19508;42.578;23.416;2024-01-15T09:42:20;92697.72;;;6.86;44.49
33151;BME280;19508;42.578;23.416;2024-01-15T09:44:46;92707.97;;;6.30;45.23
33151;BME280;19508;42.578;23.416;2024-01-15T09:47:13;92713.59;;;6.02;46.52
33151;BME280;19508;42.578;23.416;2024-01-15T09:49:41;92704.91;;;5.68;48.63
33151;BME280;19508;42.578;23.416;2024-01-15T09:52:07;92712.44;;;5.27;51.16
33151;BME280;19508;42.578;23.416;2024-01-15T09:54:33;92682.94;;;4.22;54.11
33151;BME280;19508;42.578;23.416;2024-01-15T09:57:00;92695.34;;;3.83;56.17
33151;BME280;19508;42.578;23.416;2024-01-15T09:59:26;92695.00;;;2.82;60.93
33151;BME280;19508;42.578;23.416;2024-01-15T10:01:53;92690.41;;;3.18;59.86
33151;BME280;19508;42.578;23.416;2024-01-15T10:04:19;92679.94;;;2.88;61.61
33151;BME280;19508;42.578;23.416;2024-01-15T10:06:45;92666.25;;;3.65;60.68
33151;BME280;19508;42.578;23.416;2024-01-15T10:09:12;92655.50;;;4.77;56.31
33151;BME280;19508;42.578;23.416;2024-01-15T10:11:41;92647.97;;;4.36;56.53
33151;BME280;19508;42.578;23.416;2024-01-15T10:14:07;92658.16;;;4.77;55.72
33151;BME280;19508;42.578;23.416;2024-01-15T10:16:33;92665.44;;;5.04;54.44
33151;BME280;19508;42.578;23.416;2024-01-15T10:18:58;92659.34;;;4.87;54.80
33151;BME280;19508;42.578;23.416;2024-01-15T10:21:24;92643.97;;;4.72;55.11
33151;BME280;19508;42.578;23.416;2024-01-15T10:23:51;92657.44;;;4.82;55.38
33151;BME280;19508;42.578;23.416;2024-01-15T10:26:17;92655.41;;;5.11;54.46
33151;BME280;19508;42.578;23.416;2024-01-15T10:28:42;92640.56;;;5.42;52.96
33151;BME280;19508;42.578;23.416;2024-01-15T10:31:08;92643.06;;;5.54;51.47
33151;BME280;19508;42.578;23.416;2024-01-15T10:33:33;92619.63;;;5.83;51.03
33151;BME280;19508;42.578;23.416;2024-01-15T10:36:00;92608.97;;;5.12;53.13
33151;BME280;19508;42.578;23.416;2024-01-15T10:38:26;92607.31;;;4.84;54.99
33151;BME280;19508;42.578;23.416;2024-01-15T10:40:53;92609.56;;;4.32;56.24
33151;BME280;19508;42.578;23.416;2024-01-15T10:43:19;92597.59;;;3.67;58.13
33151;BME280;19508;42.578;23.416;2024-01-15T10:45:45;92616.66;;;3.76;60.37
33151;BME280;19508;42.578;23.416;2024-01-15T10:48:11;92610.88;;;3.79;59.50
33151;BME280;19508;42.578;23.416;2024-01-15T10:50:37;92597.22;;;3.75;58.18
33151;BME280;19508;42.578;23.416;2024-01-15T10:53:03;92590.13;;;3.19;60.29
33151;BME280;19508;42.578;23.416;2024-01-15T10:55:30;92558.22;;;3.19;62.91
33151;BME280;19508;42.578;23.416;2024-01-15T10:57:57;92574.84;;;3.26;61.36
33151;BME280;19508;42.578;23.416;2024-01-15T11:00:22;92577.16;;;3.67;63.30
33151;BME280;19508;42.578;23.416;2024-01-15T11:02:48;92577.88;;;4.74;60.86
33151;BME280;19508;42.578;23.416;2024-01-15T11:05:14;92576.19;;;4.90;58.48
33151;BME280;19508;42.578;23.416;2024-01-15T11:07:40;92590.78;;;4.43;58.51
33151;BME280;19508;42.578;23.416;2024-01-15T11:10:07;92590.69;;;4.55;58.41
33151;BME280;19508;42.578;23.416;2024-01-15T11:12:35;92575.00;;;4.37;59.01
33151;BME280;19508;42.578;23.416;2024-01-15T11:15:02;92567.34;;;4.07;59.42
33151;BME280;19508;42.578;23.416;2024-01-15T11:17:59;92563.22;;;4.76;57.79
33151;BME280;19508;42.578;23.416;2024-01-15T11:20:30;92543.59;;;5.09;57.16
33151;BME280;19508;42.578;23.416;2024-01-15T11:22:57;92553.31;;;5.75;56.71
33151;BME280;19508;42.578;23.416;2024-01-15T11:25:34;92548.50;;;6.51;52.93
33151;BME280;19508;42.578;23.416;2024-01-15T11:28:05;92538.31;;;6.43;52.63
33151;BME280;19508;42.578;23.416;2024-01-15T11:30:31;92532.97;;;6.43;53.18
33151;BME280;19508;42.578;23.416;2024-01-15T11:33:01;92531.53;;;6.83;50.80
33151;BME280;19508;42.578;23.416;2024-01-15T11:35:49;92540.94;;;6.90;51.62
33151;BME280;19508;42.578;23.416;2024-01-15T11:38:26;92521.28;;;7.37;50.80
33151;BME280;19508;42.578;23.416;2024-01-15T11:40:54;92536.78;;;7.30;49.95
33151;BME280;19508;42.578;23.416;2024-01-15T11:43:19;92542.97;;;5.88;51.31
33151;BME280;19508;42.578;23.416;2024-01-15T11:45:51;92533.41;;;4.58;55.59
33151;BME280;19508;42.578;23.416;2024-01-15T11:48:17;92559.13;;;4.08;57.46
33151;BME280;19508;42.578;23.416;2024-01-15T11:50:44;92561.78;;;3.58;60.65
33151;BME280;19508;42.578;23.416;2024-01-15T11:53:17;92551.50;;;3.61;60.50
33151;BME280;19508;42.578;23.416;2024-01-15T11:55:45;92541.59;;;4.12;58.10
33151;BME280;19508;42.578;23.416;2024-01-15T11:58:11;92541.13;;;5.57;54.53
33151;BME280;19508;42.578;23.416;2024-01-15T12:00:50;92561.50;;;5.95;53.15
33151;BME280;19508;42.578;23.416;2024-01-15T12:03:17;92529.63;;;6.20;53.21
33151;BME280;19508;42.578;23.416;2024-01-15T12:05:45;92558.81;;;5.95;52.95
33151;BME280;19508;42.578;23.416;2024-01-15T12:08:10;92550.22;;;5.56;53.19
33151;BME280;19508;42.578;23.416;2024-01-15T12:10:38;92536.84;;;5.29;53.87
33151;BME280;19508;42.578;23.416;2024-01-15T12:13:10;92542.44;;;5.00;54.88
33151;BME280;19508;42.578;23.416;2024-01-15T12:15:37;92523.69;;;4.46;56.23
33151;BME280;19508;42.578;23.416;2024-01-15T12:18:03;92542.84;;;4.87;55.72
33151;BME280;19508;42.578;23.416;2024-01-15T12:20:30;92513.25;;;4.89;55.04
33151;BME280;19508;42.578;23.416;2024-01-15T12:22:56;92499.75;;;5.00;55.75
33151;BME280;19508;42.578;23.416;2024-01-15T12:25:23;92514.59;;;5.45;55.57
33151;BME280;19508;42.578;23.416;2024-01-15T12:27:49;92520.06;;;5.60;55.98
33151;BME280;19508;42.578;23.416;2024-01-15T12:30:15;92521.59;;;5.24;57.53
33151;BME280;19508;42.578;23.416;2024-01-15T12:32:41;92524.91;;;5.09;57.50
33151;BME280;19508;42.578;23.416;2024-01-15T12:35:13;92515.53;;;5.61;57.87
33151;BME280;19508;42.578;23.416;2024-01-15T12:37:42;92526.72;;;5.58;58.97
33151;BME280;19508;42.578;23.416;2024-01-15T12:40:10;92520.91;;;5.34;56.55
33151;BME280;19508;42.578;23.416;2024-01-15T12:42:41;92513.25;;;5.16;57.54
33151;BME280;19508;42.578;23.416;2024-01-15T12:45:08;92515.97;;;5.53;56.93
33151;BME280;19508;42.578;23.416;2024-01-15T12:47:34;92518.72;;;5.04;57.10
33151;BME280;19508;42.578;23.416;2024-01-15T12:50:00;92506.59;;;4.91;58.48